Time;durP1;ratioP1;P1;durP2;ratioP2;P2;SDS_P1;SDS_P2;PMS_P1;PMS_P2;Temp;Humidity;BMP_temperature;BMP_pressure;BME280_temperature;BME280_humidity;BME280_pressure;Samples;Min_cycle;Max_cycle;Signal;HPM_P1;HPM_P2
2021/09/03 00:02:22;;;;;;;6.10;1.60;;;;;;;;;;5042451;28;20045;-47
2021/09/03 00:04:50;;;;;;;8.35;1.77;;;;;;;;;;5044962;28;20024;-47
2021/09/03 00:07:18;;;;;;;9.07;2.15;;;;;;;;;;5045173;28;20021;-41
2021/09/03 00:09:45;;;;;;;8.38;2.15;;;;;;;;;;5040059;28;20036;-39
2021/09/03 00:12:12;;;;;;;10.02;2.25;;;;;;;;;;5047564;28;20126;-46
2021/09/03 00:14:39;;;;;;;10.75;2.85;;;;;;;;;;5045257;28;20044;-45
2021/09/03 00:17:06;;;;;;;9.10;2.08;;;;;;;;;;5046712;28;20041;-42
2021/09/03 00:19:33;;;;;;;11.00;2.35;;;;;;;;;;5047180;28;20021;-44
2021/09/03 00:22:00;;;;;;;16.02;2.40;;;;;;;;;;5044981;28;20024;-44
2021/09/03 00:24:27;;;;;;;10.52;2.22;;;;;;;;;;5043376;28;20532;-51
2021/09/03 00:26:54;;;;;;;21.77;2.58;;;;;;;;;;5045209;28;20029;-44
2021/09/03 00:29:21;;;;;;;10.02;2.22;;;;;;;;;;5047730;28;20029;-45
2021/09/03 00:31:48;;;;;;;9.77;2.25;;;;;;;;;;5043095;28;20104;-38
2021/09/03 00:34:15;;;;;;;7.85;2.70;;;;;;;;;;5045154;28;20032;-39
2021/09/03 00:36:45;;;;;;;9.88;2.38;;;;;;;;;;5046158;28;20505;-45
2021/09/03 00:39:12;;;;;;;17.05;2.40;;;;;;;;;;5043461;28;20029;-42
2021/09/03 00:41:39;;;;;;;15.90;3.35;;;;;;;;;;5048594;28;20075;-39
2021/09/03 00:44:06;;;;;;;15.50;3.00;;;;;;;;;;5040691;28;20025;-38
2021/09/03 00:46:34;;;;;;;20.52;3.20;;;;;;;;;;5042154;28;20447;-39
2021/09/03 00:49:02;;;;;;;17.33;3.08;;;;;;;;;;5046207;28;20125;-41
2021/09/03 00:51:29;;;;;;;12.73;3.20;;;;;;;;;;5046707;28;20029;-40
2021/09/03 00:53:56;;;;;;;9.95;3.22;;;;;;;;;;5042137;28;20535;-40
2021/09/03 00:56:23;;;;;;;13.18;3.92;;;;;;;;;;5039333;28;20048;-40
2021/09/03 00:58:50;;;;;;;16.35;4.15;;;;;;;;;;5045873;28;20017;-39
2021/09/03 01:01:19;;;;;;;18.75;5.88;;;;;;;;;;5047011;28;20041;-40
2021/09/03 01:03:46;;;;;;;20.70;4.97;;;;;;;;;;5044306;28;20489;-41
2021/09/03 01:06:14;;;;;;;21.48;7.38;;;;;;;;;;5038176;28;20124;-40
2021/09/03 01:08:41;;;;;;;23.08;7.82;;;;;;;;;;5041369;28;20456;-41
2021/09/03 01:11:08;;;;;;;23.95;6.30;;;;;;;;;;5038987;28;20531;-45
2021/09/03 01:13:35;;;;;;;15.25;6.68;;;;;;;;;;5040789;28;20104;-41
2021/09/03 01:16:02;;;;;;;19.30;6.63;;;;;;;;;;5042537;28;20025;-42
2021/09/03 01:18:29;;;;;;;18.10;6.47;;;;;;;;;;5046404;28;20477;-38
2021/09/03 01:20:56;;;;;;;20.15;6.50;;;;;;;;;;5041970;28;20029;-39
2021/09/03 01:23:23;;;;;;;16.20;6.20;;;;;;;;;;5046197;28;20018;-40
2021/09/03 01:25:50;;;;;;;22.92;6.20;;;;;;;;;;5039868;28;20028;-39
2021/09/03 01:28:17;;;;;;;13.23;5.43;;;;;;;;;;5042178;28;20112;-38
2021/09/03 01:30:44;;;;;;;19.48;6.20;;;;;;;;;;5042815;28;20124;-39
2021/09/03 01:33:11;;;;;;;26.02;6.18;;;;;;;;;;5042911;28;20041;-39
2021/09/03 01:35:38;;;;;;;16.17;6.15;;;;;;;;;;5042040;28;20057;-46
2021/09/03 01:38:06;;;;;;;18.80;5.97;;;;;;;;;;5044806;28;20025;-39
2021/09/03 01:40:34;;;;;;;15.82;6.00;;;;;;;;;;5044259;28;20026;-42
2021/09/03 01:43:01;;;;;;;13.85;5.50;;;;;;;;;;5043580;28;20385;-40
2021/09/03 01:45:28;;;;;;;15.45;6.00;;;;;;;;;;5039809;28;20052;-38
2021/09/03 01:47:55;;;;;;;13.05;5.60;;;;;;;;;;5043361;28;20058;-40
2021/09/03 01:50:22;;;;;;;15.18;5.53;;;;;;;;;;5041127;28;20017;-40
2021/09/03 01:52:49;;;;;;;15.63;5.78;;;;;;;;;;5041806;28;20053;-41
2021/09/03 01:55:16;;;;;;;12.23;4.40;;;;;;;;;;5046344;28;20090;-40
2021/09/03 01:57:43;;;;;;;13.63;5.85;;;;;;;;;;5045573;28;20074;-44
2021/09/03 02:00:10;;;;;;;15.60;5.63;;;;;;;;;;5045156;28;20028;-41
2021/09/03 02:02:38;;;;;;;16.42;5.50;;;;;;;;;;5043743;28;20412;-40
2021/09/03 02:05:05;;;;;;;12.40;5.07;;;;;;;;;;5044688;28;20037;-41
2021/09/03 02:07:33;;;;;;;19.35;5.38;;;;;;;;;;5045024;28;20381;-44
2021/09/03 02:10:00;;;;;;;11.35;4.95;;;;;;;;;;5042615;28;20100;-44
2021/09/03 02:12:27;;;;;;;18.08;4.93;;;;;;;;;;5047624;28;20013;-43
2021/09/03 02:14:54;;;;;;;13.25;4.63;;;;;;;;;;5048096;28;20130;-40
2021/09/03 02:17:21;;;;;;;23.27;5.00;;;;;;;;;;5051044;28;20396;-38
2021/09/03 02:19:48;;;;;;;20.75;4.80;;;;;;;;;;5053284;28;20020;-48
2021/09/03 02:22:15;;;;;;;15.18;4.85;;;;;;;;;;5041026;28;20027;-46
2021/09/03 02:24:42;;;;;;;13.88;4.85;;;;;;;;;;5051820;28;20032;-48
2021/09/03 02:27:09;;;;;;;15.63;5.13;;;;;;;;;;5053429;28;20040;-45
2021/09/03 02:29:36;;;;;;;28.70;5.00;;;;;;;;;;5048352;28;20025;-48
2021/09/03 02:32:03;;;;;;;24.30;5.00;;;;;;;;;;5051874;28;20120;-39
2021/09/03 02:34:30;;;;;;;25.67;5.53;;;;;;;;;;5052673;28;20023;-43
2021/09/03 02:36:57;;;;;;;18.33;5.32;;;;;;;;;;5053145;28;20056;-43
2021/09/03 02:39:24;;;;;;;19.38;4.80;;;;;;;;;;5053148;28;20032;-42
2021/09/03 02:41:51;;;;;;;18.98;5.20;;;;;;;;;;5053726;28;20108;-46
2021/09/03 02:44:18;;;;;;;24.08;4.60;;;;;;;;;;5052087;28;20350;-45
2021/09/03 02:46:45;;;;;;;21.25;4.55;;;;;;;;;;5053452;28;20111;-39
2021/09/03 02:49:12;;;;;;;15.90;4.45;;;;;;;;;;5052240;28;20412;-49
2021/09/03 02:51:39;;;;;;;22.98;5.70;;;;;;;;;;5053422;28;20103;-56
2021/09/03 02:54:06;;;;;;;18.88;4.40;;;;;;;;;;5053676;28;20032;-53
2021/09/03 02:56:34;;;;;;;14.52;4.30;;;;;;;;;;5053786;28;20376;-53
2021/09/03 02:59:01;;;;;;;12.75;3.70;;;;;;;;;;5053906;28;20021;-55
2021/09/03 03:01:28;;;;;;;18.00;4.50;;;;;;;;;;5053442;28;20040;-52
2021/09/03 03:03:55;;;;;;;11.15;4.15;;;;;;;;;;5053948;28;20099;-42
2021/09/03 03:06:22;;;;;;;12.77;4.13;;;;;;;;;;5053819;28;20481;-42
2021/09/03 03:08:49;;;;;;;10.80;4.28;;;;;;;;;;5053916;28;20032;-40
2021/09/03 03:11:16;;;;;;;14.68;4.32;;;;;;;;;;5053716;28;20477;-42
2021/09/03 03:13:47;;;;;;;11.57;3.90;;;;;;;;;;5053704;28;20393;-41
2021/09/03 03:16:15;;;;;;;12.80;3.90;;;;;;;;;;5053790;28;20024;-41
2021/09/03 03:18:42;;;;;;;8.45;3.92;;;;;;;;;;5053561;28;20052;-42
2021/09/03 03:21:09;;;;;;;10.70;4.05;;;;;;;;;;5053626;28;20029;-43
2021/09/03 03:23:36;;;;;;;7.97;3.78;;;;;;;;;;5052166;28;20013;-40
2021/09/03 03:26:03;;;;;;;14.32;4.15;;;;;;;;;;5053758;28;20496;-45
2021/09/03 03:28:31;;;;;;;10.48;3.85;;;;;;;;;;5041677;28;20040;-40
2021/09/03 03:30:57;;;;;;;9.95;3.70;;;;;;;;;;5051927;28;20100;-40
2021/09/03 03:33:24;;;;;;;19.02;3.70;;;;;;;;;;5051936;28;20488;-39
2021/09/03 03:35:52;;;;;;;12.75;3.35;;;;;;;;;;5052056;28;20036;-41
2021/09/03 03:38:19;;;;;;;10.48;3.55;;;;;;;;;;5053340;28;20025;-42
2021/09/03 03:40:46;;;;;;;7.68;3.65;;;;;;;;;;5053253;28;20452;-42
2021/09/03 03:43:13;;;;;;;9.98;3.75;;;;;;;;;;5053350;28;20029;-42
2021/09/03 03:45:40;;;;;;;6.97;3.15;;;;;;;;;;5053052;28;20115;-45
2021/09/03 03:48:07;;;;;;;7.82;3.55;;;;;;;;;;5053081;28;20024;-42
2021/09/03 03:50:34;;;;;;;9.60;3.30;;;;;;;;;;5053151;28;20033;-41
2021/09/03 03:53:01;;;;;;;9.25;3.30;;;;;;;;;;5053212;28;20369;-44
2021/09/03 03:55:28;;;;;;;10.70;3.58;;;;;;;;;;5053148;28;20036;-43
2021/09/03 03:57:55;;;;;;;6.72;2.88;;;;;;;;;;5052803;28;20043;-46
2021/09/03 04:00:22;;;;;;;6.80;3.10;;;;;;;;;;5052642;28;20550;-44
2021/09/03 04:02:49;;;;;;;9.55;3.45;;;;;;;;;;5052298;28;20044;-41
2021/09/03 04:05:16;;;;;;;9.07;3.00;;;;;;;;;;5052961;28;20112;-42
2021/09/03 04:07:43;;;;;;;9.35;3.20;;;;;;;;;;5052862;28;20017;-40
2021/09/03 04:10:10;;;;;;;10.90;3.00;;;;;;;;;;5052554;28;20101;-42
2021/09/03 04:12:37;;;;;;;9.43;3.70;;;;;;;;;;5052786;28;20024;-43
2021/09/03 04:15:05;;;;;;;7.43;2.85;;;;;;;;;;5052430;28;20128;-42
2021/09/03 04:17:31;;;;;;;8.27;3.30;;;;;;;;;;5052638;28;20086;-46
2021/09/03 04:19:58;;;;;;;6.78;2.83;;;;;;;;;;5052469;28;20376;-45
2021/09/03 04:22:26;;;;;;;6.55;3.08;;;;;;;;;;5052492;28;20025;-44
2021/09/03 04:24:53;;;;;;;9.07;3.08;;;;;;;;;;5052263;28;20064;-42
2021/09/03 04:27:19;;;;;;;8.60;2.80;;;;;;;;;;5052690;28;20017;-46
2021/09/03 04:29:46;;;;;;;5.72;2.72;;;;;;;;;;5052346;28;20476;-40
2021/09/03 04:32:13;;;;;;;5.35;2.97;;;;;;;;;;5056690;28;20079;-47
2021/09/03 04:34:40;;;;;;;5.53;2.60;;;;;;;;;;5051766;28;20052;-48
2021/09/03 04:37:07;;;;;;;7.28;2.50;;;;;;;;;;5051613;28;20422;-43
2021/09/03 04:39:35;;;;;;;4.70;2.42;;;;;;;;;;5051722;28;20085;-43
2021/09/03 04:42:01;;;;;;;4.93;2.38;;;;;;;;;;5051757;28;20021;-48
2021/09/03 04:44:29;;;;;;;6.00;3.00;;;;;;;;;;5051642;28;20472;-46
2021/09/03 04:46:56;;;;;;;6.38;2.70;;;;;;;;;;5051470;28;20047;-42
2021/09/03 04:49:23;;;;;;;4.20;2.50;;;;;;;;;;5051717;28;20108;-45
2021/09/03 04:51:50;;;;;;;5.60;2.60;;;;;;;;;;5051336;28;20028;-45
2021/09/03 04:54:17;;;;;;;4.28;2.33;;;;;;;;;;5051541;28;20712;-43
2021/09/03 04:56:44;;;;;;;5.18;2.60;;;;;;;;;;5050118;28;20358;-48
2021/09/03 04:59:11;;;;;;;8.00;2.72;;;;;;;;;;5051377;28;20384;-45
2021/09/03 05:01:38;;;;;;;4.93;2.53;;;;;;;;;;5051225;28;20049;-45
2021/09/03 05:04:05;;;;;;;4.13;2.30;;;;;;;;;;5042512;28;20021;-42
2021/09/03 05:06:32;;;;;;;3.70;2.20;;;;;;;;;;5051441;28;20056;-40
2021/09/03 05:08:59;;;;;;;5.95;2.60;;;;;;;;;;5051307;28;20022;-47
2021/09/03 05:11:26;;;;;;;4.07;2.40;;;;;;;;;;5050812;28;20029;-44
2021/09/03 05:13:53;;;;;;;6.50;2.92;;;;;;;;;;5051153;28;20024;-47
2021/09/03 05:16:20;;;;;;;3.75;1.98;;;;;;;;;;5050858;28;20489;-40
2021/09/03 05:18:47;;;;;;;4.38;2.42;;;;;;;;;;5051407;28;20017;-41
2021/09/03 05:21:14;;;;;;;6.25;2.60;;;;;;;;;;5050934;28;20381;-40
2021/09/03 05:23:41;;;;;;;3.78;1.88;;;;;;;;;;5051346;28;20447;-41
2021/09/03 05:26:08;;;;;;;4.82;2.47;;;;;;;;;;5050788;28;20059;-42
2021/09/03 05:28:35;;;;;;;6.05;2.10;;;;;;;;;;5050720;28;20517;-54
2021/09/03 05:31:02;;;;;;;4.93;2.40;;;;;;;;;;5050676;28;20044;-56
2021/09/03 05:33:29;;;;;;;3.83;2.17;;;;;;;;;;5051035;28;20032;-49
2021/09/03 05:35:56;;;;;;;3.95;2.10;;;;;;;;;;5050761;28;20040;-43
2021/09/03 05:38:23;;;;;;;4.85;2.20;;;;;;;;;;5051181;28;20028;-50
2021/09/03 05:40:51;;;;;;;4.72;2.10;;;;;;;;;;5051140;28;20151;-44
2021/09/03 05:43:21;;;;;;;3.45;2.35;;;;;;;;;;5050824;28;20026;-47
2021/09/03 05:45:49;;;;;;;5.50;1.92;;;;;;;;;;5051235;28;20491;-55
2021/09/03 05:48:16;;;;;;;4.28;2.10;;;;;;;;;;5054759;28;20448;-43
2021/09/03 05:50:43;;;;;;;4.65;2.05;;;;;;;;;;5055051;28;20468;-53
2021/09/03 05:53:11;;;;;;;5.35;2.13;;;;;;;;;;5054440;28;20029;-44
2021/09/03 05:55:38;;;;;;;3.05;1.90;;;;;;;;;;5055484;28;20041;-50
2021/09/03 05:58:05;;;;;;;4.40;1.83;;;;;;;;;;5054253;28;20013;-42
2021/09/03 06:00:32;;;;;;;3.85;1.80;;;;;;;;;;5054694;28;20400;-41
2021/09/03 06:02:59;;;;;;;3.17;2.00;;;;;;;;;;5054288;28;20136;-41
2021/09/03 06:05:27;;;;;;;4.78;1.80;;;;;;;;;;5055101;28;20021;-40
2021/09/03 06:07:54;;;;;;;3.85;1.90;;;;;;;;;;5054702;28;20451;-40
2021/09/03 06:10:21;;;;;;;4.15;1.67;;;;;;;;;;5053986;28;20400;-41
2021/09/03 06:12:50;;;;;;;4.15;1.88;;;;;;;;;;5054920;28;20112;-42
2021/09/03 06:15:17;;;;;;;3.55;1.80;;;;;;;;;;5054079;28;20033;-43
2021/09/03 06:17:44;;;;;;;3.53;1.90;;;;;;;;;;5066390;28;20012;-40
2021/09/03 06:20:11;;;;;;;4.00;2.17;;;;;;;;;;5056160;28;20162;-42
2021/09/03 06:22:39;;;;;;;2.97;1.85;;;;;;;;;;5054740;28;20048;-42
2021/09/03 06:25:06;;;;;;;2.58;1.88;;;;;;;;;;5053961;28;20362;-41
2021/09/03 06:27:33;;;;;;;3.72;1.90;;;;;;;;;;5054580;28;20505;-40
2021/09/03 06:30:00;;;;;;;3.33;1.77;;;;;;;;;;5053558;28;20025;-40
2021/09/03 06:32:29;;;;;;;3.15;1.90;;;;;;;;;;5054424;28;20380;-41
2021/09/03 06:35:00;;;;;;;3.03;1.73;;;;;;;;;;5054247;28;20049;-42
2021/09/03 06:37:28;;;;;;;2.33;1.70;;;;;;;;;;5054136;28;20027;-40
2021/09/03 06:39:56;;;;;;;4.45;1.85;;;;;;;;;;5054133;28;20065;-41
2021/09/03 06:42:23;;;;;;;4.07;1.73;;;;;;;;;;5053799;28;20059;-41
2021/09/03 06:44:51;;;;;;;1.83;1.42;;;;;;;;;;5054237;28;20033;-42
2021/09/03 06:47:18;;;;;;;2.92;1.80;;;;;;;;;;5051866;28;20051;-41
2021/09/03 06:49:45;;;;;;;3.20;1.58;;;;;;;;;;5053726;28;20096;-42
2021/09/03 06:52:13;;;;;;;2.70;1.88;;;;;;;;;;5053389;28;20463;-41
2021/09/03 06:54:40;;;;;;;3.72;1.80;;;;;;;;;;5053727;28;20035;-41
2021/09/03 06:57:08;;;;;;;2.33;1.50;;;;;;;;;;5053082;28;20029;-41
2021/09/03 06:59:35;;;;;;;2.75;1.80;;;;;;;;;;5054285;28;20025;-43
2021/09/03 07:02:02;;;;;;;2.83;1.67;;;;;;;;;;5053227;28;20536;-41
2021/09/03 07:04:29;;;;;;;2.20;1.50;;;;;;;;;;5053417;28;20017;-40
2021/09/03 07:06:56;;;;;;;2.30;1.55;;;;;;;;;;5054113;28;20025;-46
2021/09/03 07:09:23;;;;;;;2.72;1.85;;;;;;;;;;5053126;28;20017;-46
2021/09/03 07:11:50;;;;;;;3.05;1.55;;;;;;;;;;5053564;28;20032;-48
2021/09/03 07:14:18;;;;;;;2.78;1.70;;;;;;;;;;5053146;28;20032;-47
2021/09/03 07:16:45;;;;;;;4.70;1.95;;;;;;;;;;5053662;28;20029;-45
2021/09/03 07:19:12;;;;;;;3.08;1.65;;;;;;;;;;5053076;28;20043;-46
2021/09/03 07:21:39;;;;;;;3.30;1.58;;;;;;;;;;5053643;28;20373;-46
2021/09/03 07:24:06;;;;;;;3.92;1.50;;;;;;;;;;5053375;28;20033;-42
2021/09/03 07:26:33;;;;;;;1.88;1.35;;;;;;;;;;5052967;28;20384;-48
2021/09/03 07:29:00;;;;;;;5.38;1.70;;;;;;;;;;5053419;28;20537;-46
2021/09/03 07:31:27;;;;;;;2.78;1.40;;;;;;;;;;5052572;28;20491;-48
2021/09/03 07:33:54;;;;;;;3.80;1.98;;;;;;;;;;5053319;28;20472;-50
2021/09/03 07:36:21;;;;;;;2.55;1.25;;;;;;;;;;5052918;28;20029;-43
2021/09/03 07:38:48;;;;;;;4.18;1.50;;;;;;;;;;5052888;28;20028;-46
2021/09/03 07:41:15;;;;;;;3.35;1.70;;;;;;;;;;5052317;28;20137;-49
2021/09/03 07:43:42;;;;;;;3.03;1.52;;;;;;;;;;5053215;28;20483;-46
2021/09/03 07:46:09;;;;;;;2.95;1.48;;;;;;;;;;5052325;28;20444;-43
2021/09/03 07:48:37;;;;;;;2.47;1.45;;;;;;;;;;5053001;28;20062;-42
2021/09/03 07:51:04;;;;;;;2.25;1.33;;;;;;;;;;5052903;28;20025;-43
2021/09/03 07:53:31;;;;;;;3.35;1.40;;;;;;;;;;5052252;28;20021;-46
2021/09/03 07:55:58;;;;;;;3.45;1.63;;;;;;;;;;5052692;28;20045;-43
2021/09/03 07:58:25;;;;;;;3.42;1.50;;;;;;;;;;5052304;28;20017;-45
2021/09/03 08:00:52;;;;;;;4.63;1.33;;;;;;;;;;5052616;28;20035;-48
2021/09/03 08:03:19;;;;;;;4.10;1.70;;;;;;;;;;5052168;28;20055;-43
2021/09/03 08:05:47;;;;;;;2.17;1.25;;;;;;;;;;5052828;28;20032;-53
2021/09/03 08:08:14;;;;;;;2.40;1.48;;;;;;;;;;5051890;28;20036;-52
2021/09/03 08:10:41;;;;;;;2.28;1.25;;;;;;;;;;5052009;28;20021;-52
2021/09/03 08:13:09;;;;;;;3.15;1.30;;;;;;;;;;5052226;28;20503;-46
2021/09/03 08:15:37;;;;;;;2.22;1.40;;;;;;;;;;5052511;28;20123;-49
2021/09/03 08:18:04;;;;;;;2.53;1.40;;;;;;;;;;5052478;28;20550;-43
2021/09/03 08:20:32;;;;;;;2.63;1.45;;;;;;;;;;5052017;28;20078;-43
2021/09/03 08:22:59;;;;;;;2.95;1.38;;;;;;;;;;5052214;28;20021;-43
2021/09/03 08:25:26;;;;;;;3.38;1.27;;;;;;;;;;5052040;28;20040;-41
2021/09/03 08:27:54;;;;;;;3.97;1.30;;;;;;;;;;5052115;28;20022;-42
2021/09/03 08:30:21;;;;;;;3.83;1.70;;;;;;;;;;5052024;28;20021;-41
2021/09/03 08:32:49;;;;;;;1.50;1.20;;;;;;;;;;5051852;28;20021;-41
2021/09/03 08:35:16;;;;;;;2.33;1.17;;;;;;;;;;5051814;28;20143;-41
2021/09/03 08:37:43;;;;;;;3.78;1.48;;;;;;;;;;5051991;28;20099;-42
2021/09/03 08:40:11;;;;;;;3.05;1.50;;;;;;;;;;5051479;28;20083;-41
2021/09/03 08:42:39;;;;;;;2.03;1.13;;;;;;;;;;5051689;28;20083;-41
2021/09/03 08:45:07;;;;;;;2.20;1.20;;;;;;;;;;5052240;28;20031;-42
2021/09/03 08:47:34;;;;;;;1.75;1.10;;;;;;;;;;5051572;28;20020;-40
2021/09/03 08:50:01;;;;;;;3.78;1.38;;;;;;;;;;5051664;28;20029;-42
2021/09/03 08:52:29;;;;;;;3.03;1.40;;;;;;;;;;5051306;28;20388;-41
2021/09/03 08:54:56;;;;;;;2.67;1.33;;;;;;;;;;5051576;28;20028;-41
2021/09/03 08:57:23;;;;;;;3.83;1.45;;;;;;;;;;5051300;28;20123;-41
2021/09/03 08:59:50;;;;;;;4.38;1.55;;;;;;;;;;5051818;28;20021;-42
2021/09/03 09:02:18;;;;;;;2.03;1.08;;;;;;;;;;5050578;28;20056;-41
2021/09/03 09:04:46;;;;;;;2.33;1.30;;;;;;;;;;5051846;28;20017;-41
2021/09/03 09:07:13;;;;;;;3.42;1.42;;;;;;;;;;5050968;28;20017;-43
2021/09/03 09:09:41;;;;;;;2.17;1.40;;;;;;;;;;5051646;28;20021;-43
2021/09/03 09:12:13;;;;;;;3.30;1.23;;;;;;;;;;5050801;28;20032;-42
2021/09/03 09:14:59;;;;;;;2.00;1.13;;;;;;;;;;5051460;28;20032;-42
2021/09/03 09:17:29;;;;;;;3.40;1.20;;;;;;;;;;5051437;28;20025;-40
2021/09/03 09:19:57;;;;;;;2.80;1.20;;;;;;;;;;5051053;28;20021;-47
2021/09/03 09:22:24;;;;;;;3.45;1.35;;;;;;;;;;5051173;28;20060;-41
2021/09/03 09:24:51;;;;;;;3.05;1.20;;;;;;;;;;5051139;28;20502;-44
2021/09/03 09:27:25;;;;;;;2.30;1.20;;;;;;;;;;5051392;28;20380;-41
2021/09/03 09:29:52;;;;;;;2.60;1.10;;;;;;;;;;5051049;28;20032;-50
2021/09/03 09:32:20;;;;;;;2.90;1.10;;;;;;;;;;5050763;28;20100;-41
2021/09/03 09:34:47;;;;;;;3.13;1.20;;;;;;;;;;5050890;28;20029;-41
2021/09/03 09:37:15;;;;;;;2.75;1.35;;;;;;;;;;5051517;28;20419;-42
2021/09/03 09:39:42;;;;;;;2.80;1.40;;;;;;;;;;5050657;28;20025;-42
2021/09/03 09:42:19;;;;;;;3.90;1.42;;;;;;;;;;5051326;28;20025;-44
2021/09/03 09:44:46;;;;;;;3.85;1.30;;;;;;;;;;5050620;28;20028;-42
2021/09/03 09:47:13;;;;;;;4.55;1.17;;;;;;;;;;5050705;28;20036;-40
2021/09/03 09:49:43;;;;;;;2.75;1.17;;;;;;;;;;5050072;28;20104;-47
2021/09/03 09:52:10;;;;;;;3.17;1.20;;;;;;;;;;5051219;28;20032;-47
2021/09/03 09:54:37;;;;;;;2.20;1.08;;;;;;;;;;5050391;28;20111;-44
2021/09/03 09:57:05;;;;;;;4.00;1.38;;;;;;;;;;5050356;28;20029;-44
2021/09/03 09:59:34;;;;;;;4.32;1.15;;;;;;;;;;5050684;28;20017;-49
2021/09/03 10:02:03;;;;;;;2.72;1.05;;;;;;;;;;5049989;28;20047;-41
2021/09/03 10:04:31;;;;;;;4.28;1.30;;;;;;;;;;5050381;28;20032;-42
2021/09/03 10:07:00;;;;;;;5.25;1.38;;;;;;;;;;5050194;28;20112;-41
2021/09/03 10:09:28;;;;;;;3.90;1.13;;;;;;;;;;5050785;28;20096;-41
2021/09/03 10:11:56;;;;;;;3.78;1.10;;;;;;;;;;5050043;28;20104;-43
2021/09/03 10:14:25;;;;;;;3.00;1.30;;;;;;;;;;5050392;28;20017;-48
2021/09/03 10:16:53;;;;;;;3.85;1.10;;;;;;;;;;5050479;28;20033;-45
2021/09/03 10:19:27;;;;;;;4.45;1.00;;;;;;;;;;5050707;28;20033;-41
2021/09/03 10:22:00;;;;;;;3.63;1.20;;;;;;;;;;5050160;28;20025;-42
2021/09/03 10:24:29;;;;;;;2.00;0.95;;;;;;;;;;5050619;28;20021;-42
2021/09/03 10:26:57;;;;;;;3.42;1.40;;;;;;;;;;5050094;28;20040;-40
2021/09/03 10:29:40;;;;;;;2.25;1.10;;;;;;;;;;5050581;28;20025;-45
2021/09/03 10:32:08;;;;;;;2.40;1.00;;;;;;;;;;5050870;28;20618;-44
2021/09/03 10:37:17;;;;;;;3.42;1.10;;;;;;;;;;5054506;28;20037;-45
2021/09/03 10:39:45;;;;;;;12.77;1.83;;;;;;;;;;5053942;28;20027;-39
2021/09/03 10:42:12;;;;;;;6.32;1.50;;;;;;;;;;5054270;28;20388;-43
2021/09/03 10:44:57;;;;;;;10.80;1.55;;;;;;;;;;5053385;28;20464;-38
2021/09/03 10:47:34;;;;;;;7.15;1.70;;;;;;;;;;5054179;28;20546;-39
2021/09/03 10:50:10;;;;;;;7.35;1.10;;;;;;;;;;5053333;28;20036;-39
2021/09/03 10:52:37;;;;;;;8.70;1.65;;;;;;;;;;5053617;28;20124;-40
2021/09/03 10:55:08;;;;;;;6.93;1.45;;;;;;;;;;5053831;28;20037;-38
2021/09/03 10:57:54;;;;;;;4.75;1.10;;;;;;;;;;5054272;28;20029;-38
2021/09/03 11:00:21;;;;;;;8.23;1.30;;;;;;;;;;5053921;28;20049;-38
2021/09/03 11:02:48;;;;;;;4.70;1.30;;;;;;;;;;5054064;28;20045;-38
2021/09/03 11:05:16;;;;;;;5.03;1.10;;;;;;;;;;5053969;28;20544;-38
2021/09/03 11:07:43;;;;;;;5.85;1.10;;;;;;;;;;5054156;28;20021;-41
2021/09/03 11:10:20;;;;;;;3.20;1.10;;;;;;;;;;5053949;28;20472;-40
2021/09/03 11:12:51;;;;;;;2.80;1.20;;;;;;;;;;5041274;28;20036;-38
2021/09/03 11:15:18;;;;;;;1.92;0.90;;;;;;;;;;5053503;28;20029;-40
2021/09/03 11:17:46;;;;;;;10.18;2.13;;;;;;;;;;5053924;28;20017;-39
2021/09/03 11:20:16;;;;;;;33.30;6.05;;;;;;;;;;5053860;28;20551;-39
2021/09/03 11:22:43;;;;;;;19.05;3.10;;;;;;;;;;5053486;28;20044;-40
2021/09/03 11:25:11;;;;;;;37.65;4.30;;;;;;;;;;5053589;28;20388;-38
2021/09/03 11:27:39;;;;;;;24.30;2.75;;;;;;;;;;5053484;28;20049;-47
2021/09/03 11:30:11;;;;;;;43.70;3.72;;;;;;;;;;5053629;28;20020;-47
2021/09/03 11:32:38;;;;;;;167.18;15.95;;;;;;;;;;5053437;28;20025;-47
2021/09/03 11:35:07;;;;;;;483.00;43.53;;;;;;;;;;5053434;28;20381;-46
2021/09/03 11:37:47;;;;;;;148.77;14.75;;;;;;;;;;5053551;28;20090;-46
2021/09/03 11:40:18;;;;;;;143.98;15.30;;;;;;;;;;5053379;28;20179;-46
2021/09/03 11:42:46;;;;;;;103.55;11.10;;;;;;;;;;5053340;28;20029;-48
2021/09/03 11:45:33;;;;;;;107.35;13.07;;;;;;;;;;5052206;28;20021;-48
2021/09/03 11:48:01;;;;;;;85.85;8.88;;;;;;;;;;5053003;28;20024;-47
2021/09/03 11:50:36;;;;;;;48.88;6.15;;;;;;;;;;5053060;28;20025;-48
2021/09/03 11:53:23;;;;;;;39.03;5.18;;;;;;;;;;5053188;28;20033;-47
2021/09/03 11:55:51;;;;;;;66.43;6.50;;;;;;;;;;5052871;28;20032;-49
2021/09/03 11:58:22;;;;;;;64.60;7.38;;;;;;;;;;5052781;28;20104;-48
2021/09/03 12:00:53;;;;;;;44.28;6.25;;;;;;;;;;5052903;28;20029;-46
2021/09/03 12:03:21;;;;;;;56.08;5.88;;;;;;;;;;5052943;28;20043;-50
2021/09/03 12:05:49;;;;;;;50.53;6.28;;;;;;;;;;5052844;28;20024;-48
2021/09/03 12:08:30;;;;;;;46.15;6.78;;;;;;;;;;5052891;28;20037;-48
2021/09/03 12:10:58;;;;;;;59.85;8.55;;;;;;;;;;5039113;28;20017;-47
2021/09/03 12:13:28;;;;;;;58.97;8.15;;;;;;;;;;5052962;28;20025;-47
2021/09/03 12:16:03;;;;;;;68.30;9.35;;;;;;;;;;5052676;28;20037;-47
2021/09/03 12:18:32;;;;;;;82.68;10.00;;;;;;;;;;5048800;28;20378;-49
2021/09/03 12:21:01;;;;;;;70.93;10.48;;;;;;;;;;5045659;28;20028;-50
2021/09/03 12:23:48;;;;;;;85.60;10.35;;;;;;;;;;5051300;28;20079;-49
2021/09/03 12:26:16;;;;;;;70.78;9.18;;;;;;;;;;5041267;28;20096;-48
2021/09/03 12:28:45;;;;;;;80.65;10.25;;;;;;;;;;5051884;28;20115;-47
2021/09/03 12:31:16;;;;;;;73.43;9.43;;;;;;;;;;5051960;28;20565;-50
2021/09/03 12:33:53;;;;;;;65.57;8.77;;;;;;;;;;5051957;28;20040;-50
2021/09/03 12:36:22;;;;;;;71.68;8.82;;;;;;;;;;5051845;28;20119;-50
2021/09/03 12:38:51;;;;;;;60.97;8.32;;;;;;;;;;5051982;28;20028;-51
2021/09/03 12:41:20;;;;;;;62.35;8.57;;;;;;;;;;5051780;28;20500;-50
2021/09/03 12:43:51;;;;;;;55.92;7.68;;;;;;;;;;5051647;28;20025;-50
2021/09/03 12:46:18;;;;;;;54.28;7.55;;;;;;;;;;5052042;28;20021;-48
2021/09/03 12:49:01;;;;;;;42.17;7.35;;;;;;;;;;5051877;28;20111;-49
2021/09/03 12:51:28;;;;;;;48.33;7.28;;;;;;;;;;5051702;28;20064;-49
2021/09/03 12:53:55;;;;;;;46.50;6.40;;;;;;;;;;5051034;28;20025;-46
2021/09/03 12:56:23;;;;;;;25.45;3.20;;;;;;;;;;5051162;28;20073;-50
2021/09/03 12:58:50;;;;;;;10.85;3.00;;;;;;;;;;5051492;28;20025;-47
2021/09/03 13:01:17;;;;;;;14.48;2.58;;;;;;;;;;5048344;28;20025;-47
2021/09/03 13:03:45;;;;;;;12.65;2.65;;;;;;;;;;5050988;28;20025;-48
2021/09/03 13:06:12;;;;;;;14.50;2.85;;;;;;;;;;5051824;28;20403;-45
2021/09/03 13:08:40;;;;;;;33.85;3.10;;;;;;;;;;5050814;28;20090;-47
2021/09/03 13:11:07;;;;;;;17.98;2.83;;;;;;;;;;5050800;28;20028;-48
2021/09/03 13:13:34;;;;;;;25.73;3.25;;;;;;;;;;5050181;28;20053;-50
2021/09/03 13:16:01;;;;;;;26.52;3.03;;;;;;;;;;5052189;28;20039;-47
2021/09/03 13:18:28;;;;;;;19.83;2.92;;;;;;;;;;5059618;28;20468;-45
2021/09/03 13:20:55;;;;;;;29.00;3.97;;;;;;;;;;5050967;28;20067;-47
2021/09/03 13:23:22;;;;;;;22.58;3.28;;;;;;;;;;5050643;28;20538;-48
2021/09/03 13:25:50;;;;;;;16.90;2.80;;;;;;;;;;5051434;28;20048;-45
2021/09/03 13:28:17;;;;;;;21.80;2.80;;;;;;;;;;5051017;28;20029;-51
2021/09/03 13:30:44;;;;;;;27.10;2.92;;;;;;;;;;5051054;28;20400;-47
2021/09/03 13:33:11;;;;;;;24.58;3.00;;;;;;;;;;5050870;28;20468;-46
2021/09/03 13:35:39;;;;;;;12.75;2.20;;;;;;;;;;5050990;28;20029;-46
2021/09/03 13:38:06;;;;;;;11.48;2.42;;;;;;;;;;5050972;28;20021;-47
2021/09/03 13:40:33;;;;;;;15.75;2.42;;;;;;;;;;5049354;28;20021;-47
2021/09/03 13:43:00;;;;;;;13.27;2.00;;;;;;;;;;5050038;28;20029;-49
2021/09/03 13:45:27;;;;;;;14.40;2.05;;;;;;;;;;5050072;28;20468;-46
2021/09/03 13:47:54;;;;;;;6.90;2.45;;;;;;;;;;5050630;28;20491;-47
2021/09/03 13:50:21;;;;;;;10.35;2.15;;;;;;;;;;5050295;28;20096;-46
2021/09/03 13:52:48;;;;;;;10.43;1.95;;;;;;;;;;5050112;28;20484;-46
2021/09/03 13:55:15;;;;;;;6.47;1.75;;;;;;;;;;5049103;28;20040;-46
2021/09/03 13:57:42;;;;;;;10.10;1.90;;;;;;;;;;5050231;28;20021;-47
2021/09/03 14:00:10;;;;;;;7.88;1.70;;;;;;;;;;5047868;28;20021;-45
2021/09/03 14:02:37;;;;;;;4.07;1.63;;;;;;;;;;5049807;28;20067;-48
2021/09/03 14:05:04;;;;;;;6.00;1.75;;;;;;;;;;5050047;28;20021;-47
2021/09/03 14:07:31;;;;;;;3.72;1.45;;;;;;;;;;5051472;28;20473;-46
2021/09/03 14:09:58;;;;;;;5.13;1.92;;;;;;;;;;5054540;28;20024;-45
2021/09/03 14:12:25;;;;;;;7.20;1.95;;;;;;;;;;5053766;28;20025;-47
2021/09/03 14:14:52;;;;;;;3.90;1.40;;;;;;;;;;5053576;28;20035;-45
2021/09/03 14:17:20;;;;;;;10.40;1.80;;;;;;;;;;5053779;28;20021;-45
2021/09/03 14:19:48;;;;;;;7.70;1.35;;;;;;;;;;5054242;28;20475;-45
2021/09/03 14:22:15;;;;;;;5.05;1.52;;;;;;;;;;5053634;28;20029;-45
2021/09/03 14:24:42;;;;;;;4.90;1.30;;;;;;;;;;5054315;28;20021;-46
2021/09/03 14:27:12;;;;;;;2.72;1.13;;;;;;;;;;5053914;28;20033;-47
2021/09/03 14:29:39;;;;;;;2.25;1.10;;;;;;;;;;5054052;28;20064;-44
2021/09/03 14:32:07;;;;;;;2.20;0.93;;;;;;;;;;5052943;28;20042;-46
2021/09/03 14:34:34;;;;;;;3.10;1.50;;;;;;;;;;5053137;28;20094;-48
2021/09/03 14:37:01;;;;;;;1.88;1.25;;;;;;;;;;5054148;28;20116;-46
2021/09/03 14:39:28;;;;;;;3.47;1.30;;;;;;;;;;5052755;28;20078;-45
2021/09/03 14:41:55;;;;;;;5.63;1.10;;;;;;;;;;5054256;28;20104;-46
2021/09/03 14:44:22;;;;;;;4.18;1.30;;;;;;;;;;5052019;28;20079;-46